Details for United Airlines at KDEN




Go Back


Latest METAR
Local Time

KDEN 252214Z 06010G16KT 10SM FEW100 32/00 A3000 RMK AO2 T03170000

25/05/2018, 16:30:17

Description
Results
United Airlines Logo
Number of Pilots based at KDEN
0 Pilots Based here
Number of United Airlines Flights Departed from KDEN
7 Flights Departed
Number of United Airlines Flights Arrived at KDEN
8 Flights Arrived
Number of United Airlines Schedules Departing from KDEN
496 Schedules
Number of United Airlines Schedules Arriving at KDEN
558 Schedules
Number of United Airlines Schedules Departing from KDEN availible today
310 Schedules Today
Number of United Airlines Schedules Arriving at KDEN availible today
330 Schedules Today
Average Landing Rate at KDEN
-236 fpm
United Airlines Average Landing Rate at KDEN
-248 fpm
Total Fuel Purchased at KDEN by United Airlines
21,676.73 kgs / 47,788.52 lbs

Pilots Based at KDEN


Pilot ID
Pilot Name
Pilot Rank
No. of Flights
No. of Flying Hours
There are no pilots assigned to this hub!   Will you be the first?
Content